createdAt,value
2023-03-12T00:00:16.940Z,2.03
2023-03-12T00:02:47.387Z,3.87
2023-03-12T00:05:14.123Z,7.07
2023-03-12T00:07:40.574Z,2.75
2023-03-12T00:10:07.861Z,4.32
2023-03-12T00:12:34.733Z,6.28
2023-03-12T00:15:03.103Z,4.33
2023-03-12T00:17:34.848Z,3.60
2023-03-12T00:20:04.472Z,4.30
2023-03-12T00:22:31.039Z,3.80
2023-03-12T00:24:58.280Z,3.42
2023-03-12T00:27:26.218Z,3.63
2023-03-12T00:29:53.220Z,4.00
2023-03-12T00:32:20.264Z,4.53
2023-03-12T00:34:55.085Z,3.10
2023-03-12T00:37:22.652Z,3.35
2023-03-12T00:39:49.338Z,4.87
2023-03-12T00:42:17.001Z,4.30
2023-03-12T00:44:44.460Z,4.43
2023-03-12T00:47:11.751Z,3.70
2023-03-12T00:49:39.696Z,3.92
2023-03-12T00:52:10.868Z,3.83
2023-03-12T00:54:39.904Z,6.30
2023-03-12T00:57:06.579Z,6.43
2023-03-12T00:59:41.041Z,8.85
2023-03-12T01:04:57.441Z,8.60
2023-03-12T01:12:58.327Z,5.00
2023-03-12T01:15:25.530Z,6.30
2023-03-12T01:17:52.046Z,2.97
2023-03-12T01:20:18.521Z,4.93
2023-03-12T01:22:45.081Z,5.15
2023-03-12T01:25:12.342Z,3.50
2023-03-12T01:27:39.210Z,4.68
2023-03-12T01:30:16.931Z,3.90
2023-03-12T01:32:45.318Z,5.57
2023-03-12T01:35:12.237Z,5.45
2023-03-12T01:37:50.254Z,4.22
2023-03-12T01:40:22.162Z,5.53
2023-03-12T01:43:01.800Z,5.97
2023-03-12T01:46:11.514Z,4.35
2023-03-12T01:48:45.929Z,4.55
2023-03-12T01:51:18.974Z,5.38
2023-03-12T01:53:50.023Z,4.30
2023-03-12T01:56:20.045Z,3.70
2023-03-12T01:58:56.847Z,3.97
2023-03-12T02:01:29.792Z,5.10
2023-03-12T02:04:00.098Z,8.93
2023-03-12T02:06:34.515Z,3.50
2023-03-12T02:09:03.481Z,3.23
2023-03-12T02:11:29.994Z,3.55
2023-03-12T02:13:56.687Z,5.00
2023-03-12T02:16:23.252Z,3.13
2023-03-12T02:18:51.620Z,6.55
2023-03-12T02:21:24.647Z,3.83
2023-03-12T02:24:19.496Z,3.92
2023-03-12T02:26:46.551Z,3.30
2023-03-12T02:29:13.904Z,4.18
2023-03-12T02:31:48.740Z,5.53
2023-03-12T02:34:15.326Z,3.87
2023-03-12T02:36:44.812Z,3.88
2023-03-12T02:39:13.104Z,7.70
2023-03-12T02:41:42.974Z,5.43
2023-03-12T02:44:16.462Z,5.25
2023-03-12T02:46:46.128Z,6.20
2023-03-12T02:49:14.461Z,3.30
2023-03-12T02:51:42.313Z,3.20
2023-03-12T02:54:09.358Z,3.53
2023-03-12T02:56:36.107Z,3.67
2023-03-12T02:59:04.481Z,5.43
2023-03-12T03:01:34.207Z,7.15
2023-03-12T03:04:05.643Z,4.15
2023-03-12T03:06:32.653Z,3.30
2023-03-12T03:08:59.606Z,4.13
2023-03-12T03:11:26.390Z,5.70
2023-03-12T03:13:53.440Z,4.05
2023-03-12T03:16:21.027Z,5.65
2023-03-12T03:18:47.481Z,1.77
2023-03-12T03:21:16.644Z,3.25
2023-03-12T03:23:48.118Z,6.87
2023-03-12T03:26:16.196Z,3.17
2023-03-12T03:31:08.161Z,4.30
2023-03-12T03:33:36.570Z,2.45
2023-03-12T03:36:03.806Z,4.53
2023-03-12T03:38:31.366Z,3.53
2023-03-12T03:40:58.344Z,3.25
2023-03-12T03:43:24.969Z,3.75
2023-03-12T03:46:03.099Z,3.50
2023-03-12T03:48:29.856Z,5.03
2023-03-12T03:51:04.696Z,3.30
2023-03-12T03:53:31.510Z,2.55
2023-03-12T03:55:58.444Z,3.38
2023-03-12T03:58:25.069Z,5.55
2023-03-12T04:00:51.518Z,7.90
2023-03-12T04:03:18.065Z,2.47
2023-03-12T04:05:45.632Z,1.85
2023-03-12T04:08:13.652Z,6.85
2023-03-12T04:10:40.709Z,2.47
2023-03-12T04:13:07.366Z,7.05
2023-03-12T04:15:33.956Z,1.83
2023-03-12T04:18:00.414Z,4.28
2023-03-12T04:20:26.939Z,4.53
2023-03-12T04:22:53.399Z,5.05
2023-03-12T04:25:20.073Z,4.43
2023-03-12T04:27:46.650Z,1.80
2023-03-12T04:30:13.584Z,3.17
2023-03-12T04:32:40.244Z,3.75
2023-03-12T04:35:06.923Z,3.67
2023-03-12T04:37:34.456Z,2.75
2023-03-12T04:40:03.209Z,2.83
2023-03-12T04:42:29.788Z,3.40
2023-03-12T04:44:56.284Z,3.83
2023-03-12T04:47:22.832Z,6.38
2023-03-12T04:49:49.228Z,5.47
2023-03-12T04:52:17.571Z,12.03
2023-03-12T04:54:46.797Z,2.38
2023-03-12T04:57:14.486Z,5.55
2023-03-12T04:59:40.999Z,6.97
2023-03-12T05:02:07.459Z,4.45
2023-03-12T05:04:34.053Z,3.90
2023-03-12T05:07:00.518Z,6.47
2023-03-12T05:09:26.981Z,2.90
2023-03-12T05:11:53.788Z,5.05
2023-03-12T05:14:20.538Z,5.53
2023-03-12T05:16:47.119Z,4.23
2023-03-12T05:19:13.513Z,3.40
2023-03-12T05:21:49.023Z,3.90
2023-03-12T05:24:16.294Z,5.38
2023-03-12T05:26:42.959Z,6.90
2023-03-12T05:29:09.457Z,6.47
2023-03-12T05:31:36.613Z,5.75
2023-03-12T05:34:05.670Z,7.35
2023-03-12T05:36:32.294Z,5.85
2023-03-12T05:38:58.897Z,3.88
2023-03-12T05:41:29.040Z,4.33
2023-03-12T05:43:56.762Z,2.33
2023-03-12T05:46:27.488Z,6.65
2023-03-12T05:48:53.911Z,2.90
2023-03-12T05:51:21.252Z,4.22
2023-03-12T05:53:48.166Z,2.10
2023-03-12T05:56:17.784Z,4.10
2023-03-12T05:58:44.826Z,4.78
2023-03-12T06:01:14.666Z,9.05
2023-03-12T06:03:42.970Z,4.20
2023-03-12T06:06:09.914Z,3.30
2023-03-12T06:08:36.570Z,4.38
2023-03-12T06:11:03.542Z,5.47
2023-03-12T06:13:30.182Z,5.20
2023-03-12T06:16:03.278Z,7.53
2023-03-12T06:18:29.850Z,2.87
2023-03-12T06:20:56.431Z,3.22
2023-03-12T06:23:22.853Z,3.55
2023-03-12T06:25:49.287Z,4.18
2023-03-12T06:28:15.835Z,4.90
2023-03-12T06:30:44.954Z,8.00
2023-03-12T06:33:11.441Z,9.32
2023-03-12T06:35:37.940Z,7.88
2023-03-12T06:38:04.583Z,1.75
2023-03-12T06:40:31.061Z,4.97
2023-03-12T06:42:57.418Z,6.30
2023-03-12T06:45:23.926Z,5.00
2023-03-12T06:47:50.363Z,5.65
2023-03-12T06:50:16.893Z,4.22
2023-03-12T06:52:43.504Z,4.70
2023-03-12T06:55:10.242Z,3.07
2023-03-12T06:57:37.088Z,4.30
2023-03-12T07:00:05.213Z,5.00
2023-03-12T07:02:31.699Z,7.80
2023-03-12T07:05:01.404Z,3.70
2023-03-12T07:07:27.981Z,3.97
2023-03-12T07:09:54.457Z,6.20
2023-03-12T07:12:21.016Z,4.10
2023-03-12T07:14:50.198Z,7.45
2023-03-12T07:17:16.741Z,8.25
2023-03-12T07:19:43.298Z,4.57
2023-03-12T07:22:09.677Z,8.07
2023-03-12T07:24:37.371Z,4.70
2023-03-12T07:27:04.132Z,4.82
2023-03-12T07:29:30.794Z,3.42
2023-03-12T07:31:57.230Z,8.77
2023-03-12T07:34:23.806Z,9.13
2023-03-12T07:36:50.807Z,4.38
2023-03-12T07:39:17.868Z,5.97
2023-03-12T07:41:44.713Z,7.43
2023-03-12T07:44:11.230Z,9.90
2023-03-12T07:46:37.832Z,4.70
2023-03-12T07:49:04.899Z,6.32
2023-03-12T07:51:31.581Z,8.38
2023-03-12T07:53:58.365Z,11.52
2023-03-12T07:56:25.097Z,5.93
2023-03-12T07:58:51.794Z,6.93
2023-03-12T08:01:18.326Z,8.40
2023-03-12T08:03:45.063Z,7.85
2023-03-12T08:06:11.996Z,8.75
2023-03-12T08:08:41.721Z,6.97
2023-03-12T08:11:09.521Z,6.10
2023-03-12T08:13:36.704Z,5.07
2023-03-12T08:16:03.625Z,4.45
2023-03-12T08:18:30.196Z,6.68
2023-03-12T08:20:56.698Z,7.80
2023-03-12T08:23:23.698Z,5.63
2023-03-12T08:25:51.053Z,7.22
2023-03-12T08:28:18.956Z,8.32
2023-03-12T08:30:50.927Z,5.50
2023-03-12T08:33:17.413Z,4.83
2023-03-12T08:35:44.867Z,5.90
2023-03-12T08:38:11.933Z,11.15
2023-03-12T08:40:38.552Z,6.82
2023-03-12T08:43:04.934Z,5.10
2023-03-12T08:45:31.782Z,4.83
2023-03-12T08:47:58.382Z,6.63
2023-03-12T08:50:29.234Z,6.43
2023-03-12T08:52:56.234Z,7.05
2023-03-12T08:55:22.878Z,8.57
2023-03-12T08:57:49.429Z,8.40
2023-03-12T09:00:23.660Z,7.13
2023-03-12T09:02:52.164Z,10.18
2023-03-12T09:05:19.334Z,14.32
2023-03-12T09:07:45.794Z,7.53
2023-03-12T09:10:12.300Z,7.30
2023-03-12T09:12:38.976Z,7.35
2023-03-12T09:15:06.272Z,6.88
2023-03-12T09:17:32.912Z,6.72
2023-03-12T09:20:00.276Z,8.23
2023-03-12T09:22:26.784Z,10.43
2023-03-12T09:24:53.182Z,9.05
2023-03-12T09:27:19.737Z,12.25
2023-03-12T09:29:59.504Z,10.35
2023-03-12T09:32:27.515Z,13.65
2023-03-12T09:34:54.539Z,13.50
2023-03-12T09:37:23.962Z,11.05
2023-03-12T09:39:51.606Z,13.70
2023-03-12T09:42:47.404Z,14.63
2023-03-12T09:45:29.976Z,10.00
2023-03-12T09:48:02.917Z,14.20
2023-03-12T09:50:34.753Z,13.82
2023-03-12T09:53:03.050Z,12.65
2023-03-12T09:55:37.176Z,14.18
2023-03-12T09:58:04.342Z,16.90
2023-03-12T10:00:34.818Z,15.07
2023-03-12T10:03:12.291Z,15.98
2023-03-12T10:06:04.100Z,15.52
2023-03-12T10:08:33.646Z,13.02
2023-03-12T10:11:09.416Z,19.83
2023-03-12T10:13:51.097Z,16.17
2023-03-12T10:16:40.284Z,13.07
2023-03-12T10:22:34.713Z,18.70
2023-03-12T10:25:40.590Z,16.25
2023-03-12T10:28:17.524Z,12.50
2023-03-12T10:30:51.986Z,13.20
2023-03-12T10:33:19.938Z,15.18
2023-03-12T10:35:47.956Z,13.95
2023-03-12T10:38:26.439Z,15.85
2023-03-12T10:40:52.898Z,14.30
2023-03-12T10:43:19.289Z,16.67
2023-03-12T10:46:12.096Z,14.60
2023-03-12T10:48:38.558Z,13.90
2023-03-12T10:51:12.419Z,14.30
2023-03-12T10:53:45.038Z,15.03
2023-03-12T10:56:18.419Z,14.15
2023-03-12T10:58:47.572Z,12.60
2023-03-12T11:01:26.522Z,13.63
2023-03-12T11:04:08.011Z,12.25
2023-03-12T11:06:37.673Z,18.93
2023-03-12T11:09:17.321Z,15.73
2023-03-12T11:11:45.306Z,12.50
2023-03-12T11:14:22.067Z,17.90
2023-03-12T11:16:50.509Z,14.38
2023-03-12T11:19:32.764Z,13.63
2023-03-12T11:22:04.773Z,14.65
2023-03-12T11:24:31.790Z,14.48
2023-03-12T11:27:25.565Z,11.43
2023-03-12T11:29:53.250Z,12.73
2023-03-12T11:32:42.793Z,24.40
2023-03-12T11:35:19.856Z,19.90
2023-03-12T11:38:17.807Z,15.35
2023-03-12T11:41:02.558Z,23.63
2023-03-12T11:43:52.775Z,10.35
2023-03-12T11:46:50.176Z,12.00
2023-03-12T11:49:49.650Z,10.50
2023-03-12T11:52:45.193Z,14.77
2023-03-12T11:55:21.545Z,18.15
2023-03-12T11:58:17.172Z,17.98
2023-03-12T12:01:10.078Z,9.40
2023-03-12T12:03:54.779Z,19.00
2023-03-12T12:06:53.900Z,17.50
2023-03-12T12:09:39.827Z,17.77
2023-03-12T12:12:19.568Z,14.07
2023-03-12T12:15:12.502Z,12.23
2023-03-12T12:18:00.223Z,13.75
2023-03-12T12:20:43.552Z,8.10
2023-03-12T12:23:17.726Z,14.07
2023-03-12T12:26:07.143Z,8.90
2023-03-12T12:28:37.426Z,14.73
2023-03-12T12:31:16.011Z,13.20
2023-03-12T12:34:19.851Z,20.80
2023-03-12T12:37:19.792Z,16.50
2023-03-12T12:39:55.254Z,15.93
2023-03-12T12:42:26.524Z,17.00
2023-03-12T12:44:58.180Z,20.90
2023-03-12T12:47:40.426Z,12.50
2023-03-12T12:50:12.649Z,18.83
2023-03-12T12:52:39.231Z,16.80
2023-03-12T12:55:21.598Z,16.43
2023-03-12T12:58:00.637Z,21.90
2023-03-12T13:00:43.014Z,16.73
2023-03-12T13:03:17.614Z,19.35
2023-03-12T13:05:47.397Z,18.73
2023-03-12T13:08:40.097Z,11.63
2023-03-12T13:11:26.236Z,20.35
2023-03-12T13:14:05.008Z,16.70
2023-03-12T13:16:43.273Z,23.73
2023-03-12T13:19:16.153Z,27.73
2023-03-12T13:22:17.129Z,25.20
2023-03-12T13:25:20.540Z,22.50
2023-03-12T13:27:58.793Z,21.40
2023-03-12T13:30:34.520Z,26.00
2023-03-12T13:33:04.157Z,28.05
2023-03-12T13:35:38.215Z,21.67
2023-03-12T13:38:15.219Z,20.00
2023-03-12T13:40:56.222Z,23.23
2023-03-12T13:43:41.724Z,12.50
2023-03-12T13:46:27.751Z,23.48
2023-03-12T13:48:59.720Z,22.80
2023-03-12T13:51:26.704Z,17.83
2023-03-12T13:53:58.074Z,19.98
2023-03-12T13:56:33.448Z,19.77
2023-03-12T13:59:03.943Z,28.88
2023-03-12T14:01:43.485Z,19.87
2023-03-12T14:04:25.590Z,21.50
2023-03-12T14:07:22.013Z,19.98
2023-03-12T14:10:18.670Z,23.83
2023-03-12T14:13:13.206Z,22.20
2023-03-12T14:16:01.145Z,17.17
2023-03-12T14:18:31.272Z,16.98
2023-03-12T14:21:08.037Z,17.92
2023-03-12T14:23:56.547Z,9.52
2023-03-12T14:26:33.266Z,22.77
2023-03-12T14:29:15.420Z,23.07
2023-03-12T14:31:43.015Z,19.85
2023-03-12T14:34:18.960Z,20.33
2023-03-12T14:37:12.676Z,18.58
2023-03-12T14:39:58.211Z,18.00
2023-03-12T14:42:34.023Z,15.43
2023-03-12T14:45:10.568Z,14.95
2023-03-12T14:48:00.967Z,15.07
2023-03-12T14:50:36.575Z,14.10
2023-03-12T14:53:28.284Z,19.95
2023-03-12T14:56:38.279Z,14.73
2023-03-12T14:59:37.396Z,15.30
2023-03-12T15:02:16.645Z,16.85
2023-03-12T15:04:49.380Z,18.00
2023-03-12T15:07:27.715Z,21.30
2023-03-12T15:09:54.961Z,20.97
2023-03-12T15:12:57.437Z,20.75
2023-03-12T15:15:27.900Z,10.88
2023-03-12T15:17:59.511Z,14.82
2023-03-12T15:20:30.197Z,18.48
2023-03-12T15:22:57.505Z,14.23
2023-03-12T15:25:30.426Z,17.13
2023-03-12T15:28:03.055Z,18.83
2023-03-12T15:30:32.243Z,25.60
2023-03-12T15:33:06.822Z,17.90
2023-03-12T15:35:43.511Z,20.43
2023-03-12T15:38:19.320Z,21.88
2023-03-12T15:41:00.540Z,22.15
2023-03-12T15:43:27.622Z,14.95
2023-03-12T15:46:08.205Z,15.82
2023-03-12T15:48:40.352Z,14.13
2023-03-12T15:51:33.506Z,15.45
2023-03-12T15:54:16.945Z,22.65
2023-03-12T15:56:54.146Z,16.05
2023-03-12T15:59:32.959Z,18.25
2023-03-12T16:02:03.306Z,14.27
2023-03-12T16:07:37.433Z,23.02
2023-03-12T16:10:05.248Z,17.52
2023-03-12T16:12:32.019Z,14.68
2023-03-12T16:14:59.743Z,17.60
2023-03-12T16:17:34.879Z,17.65
2023-03-12T16:20:10.046Z,16.55
2023-03-12T16:22:36.526Z,19.58
2023-03-12T16:25:04.393Z,18.98
2023-03-12T16:27:33.007Z,21.87
2023-03-12T16:30:00.158Z,18.85
2023-03-12T16:32:26.638Z,17.42
2023-03-12T16:34:53.168Z,32.10
2023-03-12T16:37:20.632Z,18.73
2023-03-12T16:39:48.793Z,12.40
2023-03-12T16:42:24.994Z,17.45
2023-03-12T16:45:03.347Z,22.65
2023-03-12T16:47:30.665Z,17.88
2023-03-12T16:49:57.797Z,18.70
2023-03-12T16:52:32.803Z,25.70
2023-03-12T16:55:10.761Z,19.52
2023-03-12T16:57:44.433Z,20.30
2023-03-12T17:00:47.640Z,24.27
2023-03-12T17:03:49.805Z,21.65
2023-03-12T17:06:22.383Z,24.70
2023-03-12T17:14:23.216Z,26.83
2023-03-12T17:16:58.399Z,20.20
2023-03-12T17:19:25.399Z,26.13
2023-03-12T17:22:13.692Z,17.75
2023-03-12T17:24:44.153Z,26.48
2023-03-12T17:30:19.577Z,14.18
2023-03-12T17:38:54.932Z,13.23
2023-03-12T17:41:26.911Z,18.45
2023-03-12T17:44:04.207Z,24.25
2023-03-12T17:46:58.477Z,19.33
2023-03-12T17:49:46.060Z,30.58
2023-03-12T17:52:19.787Z,10.93
2023-03-12T17:57:30.911Z,19.90
2023-03-12T17:59:57.759Z,10.73
2023-03-12T18:02:24.684Z,13.15
2023-03-12T18:04:52.020Z,10.82
2023-03-12T18:07:26.369Z,9.15
2023-03-12T18:09:54.817Z,17.88
2023-03-12T18:12:23.537Z,12.93
2023-03-12T18:15:19.725Z,12.90
2023-03-12T18:17:50.032Z,11.70
2023-03-12T18:26:05.942Z,14.83
2023-03-12T18:28:43.210Z,11.45
2023-03-12T18:31:19.424Z,8.93
2023-03-12T18:33:46.047Z,14.50
2023-03-12T18:36:13.671Z,10.98
2023-03-12T18:38:43.087Z,9.63
2023-03-12T18:41:12.911Z,8.27
2023-03-12T18:49:13.854Z,8.13
2023-03-12T18:54:25.615Z,5.63
2023-03-12T18:56:58.439Z,10.82
2023-03-12T18:59:52.953Z,2.30
2023-03-12T19:02:28.244Z,10.13
2023-03-12T19:04:59.867Z,8.20
2023-03-12T19:07:36.080Z,9.35
2023-03-12T19:10:10.506Z,3.90
2023-03-12T19:12:50.837Z,7.90
2023-03-12T19:15:18.680Z,8.70
2023-03-12T19:17:45.794Z,4.03
2023-03-12T19:20:23.545Z,4.07
2023-03-12T19:22:50.759Z,8.05
2023-03-12T19:25:23.731Z,5.85
2023-03-12T19:27:57.692Z,5.13
2023-03-12T19:30:44.062Z,9.97
2023-03-12T19:33:16.646Z,8.32
2023-03-12T19:35:43.276Z,7.70
2023-03-12T19:38:09.747Z,10.38
2023-03-12T19:40:38.908Z,9.77
2023-03-12T19:45:48.316Z,9.38
2023-03-12T19:48:17.546Z,9.80
2023-03-12T19:50:54.523Z,10.38
2023-03-12T19:53:29.386Z,18.10
2023-03-12T19:56:22.610Z,11.80
2023-03-12T19:58:50.490Z,8.68
2023-03-12T20:01:20.868Z,11.32
2023-03-12T20:04:02.600Z,14.77
2023-03-12T20:06:30.096Z,12.35
2023-03-12T20:09:17.535Z,8.37
2023-03-12T20:11:47.341Z,12.43
2023-03-12T20:14:29.023Z,9.63
2023-03-12T20:17:33.594Z,18.67
2023-03-12T20:26:04.584Z,11.02
2023-03-12T20:28:38.484Z,19.30
2023-03-12T20:33:56.752Z,20.25
2023-03-12T20:36:24.914Z,21.30
2023-03-12T20:41:42.728Z,17.08
2023-03-12T20:44:38.756Z,22.65
2023-03-12T20:47:09.799Z,17.52
2023-03-12T20:49:43.743Z,18.57
2023-03-12T20:52:15.272Z,10.82
2023-03-12T20:57:53.511Z,17.73
2023-03-12T21:00:21.783Z,14.32
2023-03-12T21:02:49.543Z,15.00
2023-03-12T21:05:17.736Z,14.90
2023-03-12T21:07:54.989Z,19.88
2023-03-12T21:10:46.938Z,13.15
2023-03-12T21:13:22.950Z,18.02
2023-03-12T21:15:54.847Z,11.50
2023-03-12T21:18:25.755Z,17.65
2023-03-12T21:20:52.847Z,14.15
2023-03-12T21:26:09.337Z,13.38
2023-03-12T21:28:37.776Z,15.80
2023-03-12T21:31:22.442Z,12.15
2023-03-12T21:33:56.602Z,17.17
2023-03-12T21:36:28.809Z,25.50
2023-03-12T21:39:23.175Z,14.35
2023-03-12T21:44:49.859Z,13.73
2023-03-12T21:47:16.344Z,24.67
2023-03-12T21:49:43.757Z,12.95
2023-03-12T21:52:18.044Z,16.85
2023-03-12T21:54:48.367Z,18.00
2023-03-12T21:57:20.073Z,16.83
2023-03-12T21:59:51.792Z,13.63
2023-03-12T22:02:18.870Z,27.10
2023-03-12T22:04:52.802Z,14.43
2023-03-12T22:07:19.630Z,21.45
2023-03-12T22:09:49.698Z,21.38
2023-03-12T22:12:19.713Z,20.33
2023-03-12T22:15:06.495Z,24.25
2023-03-12T22:17:34.895Z,18.20
2023-03-12T22:20:03.738Z,18.55
2023-03-12T22:22:36.610Z,20.23
2023-03-12T22:25:03.336Z,18.77
2023-03-12T22:27:45.693Z,20.45
2023-03-12T22:30:15.872Z,22.15
2023-03-12T22:33:03.717Z,21.42
2023-03-12T22:35:50.509Z,19.63
2023-03-12T22:38:24.359Z,26.20
2023-03-12T22:40:56.061Z,22.17
2023-03-12T22:46:13.741Z,22.48
2023-03-12T22:48:56.322Z,20.25
2023-03-12T22:51:28.485Z,25.60
2023-03-12T22:53:56.216Z,18.08
2023-03-12T22:56:24.344Z,26.70
2023-03-12T22:58:53.178Z,13.25
2023-03-12T23:01:22.009Z,30.67
2023-03-12T23:03:50.932Z,20.93
2023-03-12T23:09:12.668Z,22.75
2023-03-12T23:11:41.145Z,18.27
2023-03-12T23:14:08.447Z,17.88
2023-03-12T23:16:40.181Z,26.53
2023-03-12T23:19:07.067Z,17.83
2023-03-12T23:21:41.214Z,25.35
2023-03-12T23:24:21.017Z,16.83
2023-03-12T23:26:49.710Z,14.00
2023-03-12T23:29:21.779Z,16.67
2023-03-12T23:34:35.832Z,16.08
2023-03-12T23:37:15.347Z,17.85
2023-03-12T23:39:54.035Z,16.10
2023-03-12T23:42:21.791Z,12.03
2023-03-12T23:44:56.114Z,16.52
2023-03-12T23:47:22.886Z,21.65
2023-03-12T23:49:49.754Z,18.65
2023-03-12T23:52:28.493Z,29.67
2023-03-12T23:54:58.535Z,20.60
